sensor_id;sensor_type;location;lat;lon;timestamp;pressure;altitude;pressure_sealevel;temperature;humidity
21944;BME280;11136;48.778;9.126;2023-12-14T00:01:33;96223.13;;;6.68;75.62
21944;BME280;11136;48.778;9.126;2023-12-14T00:03:58;96278.50;;;7.02;75.68
21944;BME280;11136;48.778;9.126;2023-12-14T00:06:23;96430.06;;;7.95;75.75
21944;BME280;11136;48.778;9.126;2023-12-14T00:08:48;96081.09;;;5.74;75.72
21944;BME280;11136;48.778;9.126;2023-12-14T00:11:14;96399.31;;;7.73;75.72
21944;BME280;11136;48.778;9.126;2023-12-14T00:13:39;96456.88;;;8.01;75.54
21944;BME280;11136;48.778;9.126;2023-12-14T00:16:05;96392.50;;;7.74;75.30
21944;BME280;11136;48.778;9.126;2023-12-14T00:18:31;96448.09;;;8.05;76.06
21944;BME280;11136;48.778;9.126;2023-12-14T00:20:56;96044.28;;;5.54;75.26
21944;BME280;11136;48.778;9.126;2023-12-14T00:23:22;96192.75;;;6.41;75.36
21944;BME280;11136;48.778;9.126;2023-12-14T00:25:48;96030.38;;;5.35;75.72
21944;BME280;11136;48.778;9.126;2023-12-14T00:28:13;96351.81;;;7.23;75.38
21944;BME280;11136;48.778;9.126;2023-12-14T00:30:38;96313.66;;;6.97;75.93
21944;BME280;11136;48.778;9.126;2023-12-14T00:33:04;96307.25;;;6.92;75.48
21944;BME280;11136;48.778;9.126;2023-12-14T00:35:29;96177.97;;;6.33;75.47
21944;BME280;11136;48.778;9.126;2023-12-14T00:37:55;96416.75;;;7.79;75.13
21944;BME280;11136;48.778;9.126;2023-12-14T00:40:20;96458.88;;;8.09;75.76
21944;BME280;11136;48.778;9.126;2023-12-14T00:42:45;96500.53;;;8.09;75.36
21944;BME280;11136;48.778;9.126;2023-12-14T00:45:11;96406.63;;;7.54;75.82
21944;BME280;11136;48.778;9.126;2023-12-14T00:47:36;96302.25;;;6.90;75.35
21944;BME280;11136;48.778;9.126;2023-12-14T00:50:01;96281.00;;;6.66;75.39
21944;BME280;11136;48.778;9.126;2023-12-14T00:52:27;96202.22;;;6.26;75.51
21944;BME280;11136;48.778;9.126;2023-12-14T00:54:52;96236.63;;;6.32;75.35
21944;BME280;11136;48.778;9.126;2023-12-14T00:57:18;96293.75;;;6.66;75.71
21944;BME280;11136;48.778;9.126;2023-12-14T00:59:43;96344.16;;;6.86;75.68
21944;BME280;11136;48.778;9.126;2023-12-14T01:02:08;96213.25;;;6.14;75.95
21944;BME280;11136;48.778;9.126;2023-12-14T01:04:34;96353.75;;;6.70;75.64
21944;BME280;11136;48.778;9.126;2023-12-14T01:06:59;96495.66;;;7.70;75.47
21944;BME280;11136;48.778;9.126;2023-12-14T01:09:24;96323.97;;;6.32;76.16
21944;BME280;11136;48.778;9.126;2023-12-14T01:11:50;96268.81;;;6.20;76.33
21944;BME280;11136;48.778;9.126;2023-12-14T01:14:16;96445.34;;;7.10;76.08
21944;BME280;11136;48.778;9.126;2023-12-14T01:16:42;96350.16;;;6.47;76.22
21944;BME280;11136;48.778;9.126;2023-12-14T01:19:07;96532.81;;;7.61;76.49
21944;BME280;11136;48.778;9.126;2023-12-14T01:21:33;96281.63;;;6.06;76.42
21944;BME280;11136;48.778;9.126;2023-12-14T01:23:58;96518.63;;;7.70;75.66
21944;BME280;11136;48.778;9.126;2023-12-14T01:26:23;96432.28;;;7.14;76.54
21944;BME280;11136;48.778;9.126;2023-12-14T01:28:49;96300.47;;;6.29;76.33
21944;BME280;11136;48.778;9.126;2023-12-14T01:31:14;96548.31;;;7.71;76.62
21944;BME280;11136;48.778;9.126;2023-12-14T01:33:39;96301.97;;;6.06;76.15
21944;BME280;11136;48.778;9.126;2023-12-14T01:36:05;96519.75;;;7.65;75.95
21944;BME280;11136;48.778;9.126;2023-12-14T01:38:30;96449.84;;;7.06;75.91
21944;BME280;11136;48.778;9.126;2023-12-14T01:40:55;96295.38;;;6.16;76.13
21944;BME280;11136;48.778;9.126;2023-12-14T01:43:21;96464.31;;;7.31;75.86
21944;BME280;11136;48.778;9.126;2023-12-14T01:45:46;96245.75;;;5.83;75.77
21944;BME280;11136;48.778;9.126;2023-12-14T01:48:12;96503.03;;;7.49;76.10
21944;BME280;11136;48.778;9.126;2023-12-14T01:50:37;96560.34;;;7.81;76.17
21944;BME280;11136;48.778;9.126;2023-12-14T01:53:03;96366.97;;;6.50;75.73
21944;BME280;11136;48.778;9.126;2023-12-14T01:55:28;96547.41;;;7.46;75.88
21944;BME280;11136;48.778;9.126;2023-12-14T01:57:54;96268.53;;;5.85;75.71
21944;BME280;11136;48.778;9.126;2023-12-14T02:00:42;96571.38;;;7.69;75.64
21944;BME280;11136;48.778;9.126;2023-12-14T02:03:10;96422.41;;;6.59;76.42
21944;BME280;11136;48.778;9.126;2023-12-14T02:05:36;96524.34;;;7.10;76.36
21944;BME280;11136;48.778;9.126;2023-12-14T02:08:01;96278.47;;;5.63;76.07
21944;BME280;11136;48.778;9.126;2023-12-14T02:10:26;96594.13;;;7.59;76.23
21944;BME280;11136;48.778;9.126;2023-12-14T02:12:52;96445.63;;;6.67;76.28
21944;BME280;11136;48.778;9.126;2023-12-14T02:15:17;96518.03;;;7.02;76.37
21944;BME280;11136;48.778;9.126;2023-12-14T02:17:43;96533.31;;;7.02;76.53
21944;BME280;11136;48.778;9.126;2023-12-14T02:20:09;96596.38;;;7.51;75.91
21944;BME280;11136;48.778;9.126;2023-12-14T02:23:00;96567.91;;;7.32;76.96
21944;BME280;11136;48.778;9.126;2023-12-14T02:25:27;96493.41;;;6.76;76.31
21944;BME280;11136;48.778;9.126;2023-12-14T02:27:52;96473.13;;;6.62;76.26
21944;BME280;11136;48.778;9.126;2023-12-14T02:30:18;96610.78;;;7.52;76.44
21944;BME280;11136;48.778;9.126;2023-12-14T02:32:43;96472.63;;;6.69;76.32
21944;BME280;11136;48.778;9.126;2023-12-14T02:35:09;96616.19;;;7.48;77.02
21944;BME280;11136;48.778;9.126;2023-12-14T02:37:35;96444.16;;;6.37;76.74
21944;BME280;11136;48.778;9.126;2023-12-14T02:40:06;96460.25;;;6.51;76.11
21944;BME280;11136;48.778;9.126;2023-12-14T02:42:31;96615.56;;;7.57;76.02
21944;BME280;11136;48.778;9.126;2023-12-14T02:44:57;96620.56;;;7.58;76.38
21944;BME280;11136;48.778;9.126;2023-12-14T02:47:23;96501.25;;;6.73;76.01
21944;BME280;11136;48.778;9.126;2023-12-14T02:49:48;96632.56;;;7.31;76.44
21944;BME280;11136;48.778;9.126;2023-12-14T02:52:13;96516.53;;;6.73;76.12
21944;BME280;11136;48.778;9.126;2023-12-14T02:54:39;96628.53;;;7.54;76.55
21944;BME280;11136;48.778;9.126;2023-12-14T02:57:05;96625.16;;;7.53;76.33
21944;BME280;11136;48.778;9.126;2023-12-14T02:59:30;96495.34;;;6.60;76.26
21944;BME280;11136;48.778;9.126;2023-12-14T03:01:55;96632.69;;;7.55;76.20
21944;BME280;11136;48.778;9.126;2023-12-14T03:04:21;96467.16;;;6.36;76.30
21944;BME280;11136;48.778;9.126;2023-12-14T03:06:46;96536.84;;;6.87;76.61
21944;BME280;11136;48.778;9.126;2023-12-14T03:09:11;96501.16;;;6.62;76.19
21944;BME280;11136;48.778;9.126;2023-12-14T03:11:37;96548.53;;;6.64;76.33
21944;BME280;11136;48.778;9.126;2023-12-14T03:14:02;96604.28;;;7.21;76.06
21944;BME280;11136;48.778;9.126;2023-12-14T03:16:27;96352.09;;;5.64;76.30
21944;BME280;11136;48.778;9.126;2023-12-14T03:18:52;96573.97;;;6.91;76.15
21944;BME280;11136;48.778;9.126;2023-12-14T03:21:19;96650.16;;;7.21;76.27
21944;BME280;11136;48.778;9.126;2023-12-14T03:23:44;96660.88;;;7.53;76.03
21944;BME280;11136;48.778;9.126;2023-12-14T03:26:10;96518.97;;;6.62;76.17
21944;BME280;11136;48.778;9.126;2023-12-14T03:28:35;96536.69;;;6.63;76.36
21944;BME280;11136;48.778;9.126;2023-12-14T03:31:00;96534.63;;;6.56;76.43
21944;BME280;11136;48.778;9.126;2023-12-14T03:33:26;96704.84;;;7.57;76.19
21944;BME280;11136;48.778;9.126;2023-12-14T03:35:51;96512.22;;;6.07;76.32
21944;BME280;11136;48.778;9.126;2023-12-14T03:38:16;96520.72;;;6.61;76.04
21944;BME280;11136;48.778;9.126;2023-12-14T03:40:41;96692.28;;;7.66;76.17
21944;BME280;11136;48.778;9.126;2023-12-14T03:43:07;96579.44;;;6.85;76.39
21944;BME280;11136;48.778;9.126;2023-12-14T03:45:32;96691.91;;;7.73;76.38
21944;BME280;11136;48.778;9.126;2023-12-14T03:47:57;96553.06;;;6.86;75.74
21944;BME280;11136;48.778;9.126;2023-12-14T03:50:23;96380.22;;;5.75;75.38
21944;BME280;11136;48.778;9.126;2023-12-14T03:52:48;96606.13;;;7.06;75.61
21944;BME280;11136;48.778;9.126;2023-12-14T03:55:14;96712.22;;;7.87;75.92
21944;BME280;11136;48.778;9.126;2023-12-14T03:57:42;96473.25;;;6.33;75.88
21944;BME280;11136;48.778;9.126;2023-12-14T04:00:10;96721.31;;;7.91;76.18
21944;BME280;11136;48.778;9.126;2023-12-14T04:02:35;96542.94;;;6.72;75.30
21944;BME280;11136;48.778;9.126;2023-12-14T04:05:01;96546.00;;;6.77;75.37
21944;BME280;11136;48.778;9.126;2023-12-14T04:07:26;96728.03;;;7.92;75.28
21944;BME280;11136;48.778;9.126;2023-12-14T04:09:51;96680.00;;;7.33;76.00
21944;BME280;11136;48.778;9.126;2023-12-14T04:12:16;96480.53;;;6.12;75.37
21944;BME280;11136;48.778;9.126;2023-12-14T04:14:42;96743.56;;;7.89;75.79
21944;BME280;11136;48.778;9.126;2023-12-14T04:17:07;96645.06;;;7.21;75.94
21944;BME280;11136;48.778;9.126;2023-12-14T04:19:32;96748.56;;;7.90;76.10
21944;BME280;11136;48.778;9.126;2023-12-14T04:21:58;96656.06;;;7.09;76.14
21944;BME280;11136;48.778;9.126;2023-12-14T04:24:23;96642.81;;;7.17;76.13
21944;BME280;11136;48.778;9.126;2023-12-14T04:26:48;96762.47;;;7.99;75.81
21944;BME280;11136;48.778;9.126;2023-12-14T04:29:14;96777.88;;;7.97;76.23
21944;BME280;11136;48.778;9.126;2023-12-14T04:31:39;96683.69;;;7.42;75.55
21944;BME280;11136;48.778;9.126;2023-12-14T04:34:04;96718.19;;;7.60;75.77
21944;BME280;11136;48.778;9.126;2023-12-14T04:36:30;96748.81;;;7.60;75.88
21944;BME280;11136;48.778;9.126;2023-12-14T04:38:55;96687.66;;;7.06;75.66
21944;BME280;11136;48.778;9.126;2023-12-14T04:41:20;96690.81;;;7.37;75.76
21944;BME280;11136;48.778;9.126;2023-12-14T04:43:45;96783.19;;;7.94;75.91
21944;BME280;11136;48.778;9.126;2023-12-14T04:46:11;96789.28;;;7.92;76.38
21944;BME280;11136;48.778;9.126;2023-12-14T04:48:36;96519.41;;;6.14;75.97
21944;BME280;11136;48.778;9.126;2023-12-14T04:51:01;96594.25;;;6.39;75.96
21944;BME280;11136;48.778;9.126;2023-12-14T04:53:26;96710.19;;;7.27;75.67
21944;BME280;11136;48.778;9.126;2023-12-14T04:55:52;96759.63;;;7.51;76.29
21944;BME280;11136;48.778;9.126;2023-12-14T04:58:17;96799.28;;;7.82;76.76
21944;BME280;11136;48.778;9.126;2023-12-14T05:00:42;96571.63;;;6.34;76.41
21944;BME280;11136;48.778;9.126;2023-12-14T05:03:08;96721.19;;;7.27;76.41
21944;BME280;11136;48.778;9.126;2023-12-14T05:05:33;96792.78;;;7.51;76.01
21944;BME280;11136;48.778;9.126;2023-12-14T05:07:59;96582.63;;;6.35;76.45
21944;BME280;11136;48.778;9.126;2023-12-14T05:10:24;96740.41;;;7.19;76.41
21944;BME280;11136;48.778;9.126;2023-12-14T05:12:49;96579.09;;;6.23;75.66
21944;BME280;11136;48.778;9.126;2023-12-14T05:15:15;96827.66;;;7.78;76.39
21944;BME280;11136;48.778;9.126;2023-12-14T05:17:40;96827.97;;;7.73;77.14
21944;BME280;11136;48.778;9.126;2023-12-14T05:20:08;96830.22;;;7.78;75.84
21944;BME280;11136;48.778;9.126;2023-12-14T05:22:33;96833.47;;;7.80;75.95
21944;BME280;11136;48.778;9.126;2023-12-14T05:24:59;96617.31;;;5.95;76.23
21944;BME280;11136;48.778;9.126;2023-12-14T05:27:24;96842.78;;;7.81;76.93
21944;BME280;11136;48.778;9.126;2023-12-14T05:29:50;96795.31;;;7.24;76.29
21944;BME280;11136;48.778;9.126;2023-12-14T05:32:15;96850.44;;;7.81;76.79
21944;BME280;11136;48.778;9.126;2023-12-14T05:34:40;96651.22;;;6.51;76.84
21944;BME280;11136;48.778;9.126;2023-12-14T05:37:06;96866.34;;;7.84;76.26
21944;BME280;11136;48.778;9.126;2023-12-14T05:39:31;96737.75;;;6.93;76.24
21944;BME280;11136;48.778;9.126;2023-12-14T05:41:56;96445.47;;;4.91;75.91
21944;BME280;11136;48.778;9.126;2023-12-14T05:44:21;96642.91;;;6.20;76.46
21944;BME280;11136;48.778;9.126;2023-12-14T05:46:47;96889.94;;;7.88;76.90
21944;BME280;11136;48.778;9.126;2023-12-14T05:49:13;96889.66;;;7.65;76.55
21944;BME280;11136;48.778;9.126;2023-12-14T05:51:38;96700.50;;;6.64;76.18
21944;BME280;11136;48.778;9.126;2023-12-14T05:54:04;96755.16;;;6.87;76.48
21944;BME280;11136;48.778;9.126;2023-12-14T05:56:30;96908.53;;;7.90;76.72
21944;BME280;11136;48.778;9.126;2023-12-14T05:58:55;96708.16;;;6.64;76.88
21944;BME280;11136;48.778;9.126;2023-12-14T06:01:23;96723.97;;;6.69;76.43
21944;BME280;11136;48.778;9.126;2023-12-14T06:03:48;96737.72;;;6.38;76.25
21944;BME280;11136;48.778;9.126;2023-12-14T06:06:14;96797.88;;;7.24;76.45
21944;BME280;11136;48.778;9.126;2023-12-14T06:08:39;96954.47;;;7.90;76.96
21944;BME280;11136;48.778;9.126;2023-12-14T06:11:05;96747.81;;;6.68;76.58
21944;BME280;11136;48.778;9.126;2023-12-14T06:13:31;96771.81;;;6.64;76.73
21944;BME280;11136;48.778;9.126;2023-12-14T06:15:57;96757.56;;;6.61;76.76
21944;BME280;11136;48.778;9.126;2023-12-14T06:18:22;96686.53;;;6.28;76.68
21944;BME280;11136;48.778;9.126;2023-12-14T06:20:47;96880.75;;;7.44;77.12
21944;BME280;11136;48.778;9.126;2023-12-14T06:23:14;96846.47;;;7.35;77.09
21944;BME280;11136;48.778;9.126;2023-12-14T06:25:39;96541.50;;;5.43;76.82
21944;BME280;11136;48.778;9.126;2023-12-14T06:28:04;96937.53;;;7.89;76.44
21944;BME280;11136;48.778;9.126;2023-12-14T06:30:29;96802.00;;;6.70;76.98
21944;BME280;11136;48.778;9.126;2023-12-14T06:32:55;96753.63;;;6.70;76.93
21944;BME280;11136;48.778;9.126;2023-12-14T06:35:21;96754.34;;;6.72;76.90
21944;BME280;11136;48.778;9.126;2023-12-14T06:37:46;96651.81;;;5.99;76.91
21944;BME280;11136;48.778;9.126;2023-12-14T06:40:11;96891.53;;;7.35;76.88
21944;BME280;11136;48.778;9.126;2023-12-14T06:42:37;96871.13;;;7.35;76.92
21944;BME280;11136;48.778;9.126;2023-12-14T06:45:02;96953.44;;;7.65;77.06
21944;BME280;11136;48.778;9.126;2023-12-14T06:47:28;96934.31;;;7.58;77.14
21944;BME280;11136;48.778;9.126;2023-12-14T06:49:53;96923.28;;;7.58;76.99
21944;BME280;11136;48.778;9.126;2023-12-14T06:52:19;96854.59;;;7.14;77.13
21944;BME280;11136;48.778;9.126;2023-12-14T06:54:44;96801.19;;;6.84;76.45
21944;BME280;11136;48.778;9.126;2023-12-14T06:57:10;96834.94;;;6.87;76.76
21944;BME280;11136;48.778;9.126;2023-12-14T06:59:35;96609.41;;;5.41;76.31
21944;BME280;11136;48.778;9.126;2023-12-14T07:02:00;96811.28;;;6.71;76.67
21944;BME280;11136;48.778;9.126;2023-12-14T07:04:25;96814.38;;;6.90;76.42
21944;BME280;11136;48.778;9.126;2023-12-14T07:06:52;96829.13;;;6.85;76.57
21944;BME280;11136;48.778;9.126;2023-12-14T07:09:17;96735.06;;;6.11;76.64
21944;BME280;11136;48.778;9.126;2023-12-14T07:11:43;96682.13;;;5.88;76.67
21944;BME280;11136;48.778;9.126;2023-12-14T07:14:08;96898.66;;;7.30;76.60
21944;BME280;11136;48.778;9.126;2023-12-14T07:16:33;97019.00;;;7.92;76.55
21944;BME280;11136;48.778;9.126;2023-12-14T07:18:59;96860.34;;;6.60;76.14
21944;BME280;11136;48.778;9.126;2023-12-14T07:21:24;96863.25;;;6.83;76.42
21944;BME280;11136;48.778;9.126;2023-12-14T07:23:49;97007.38;;;7.74;76.48
21944;BME280;11136;48.778;9.126;2023-12-14T07:26:15;96221.38;;;2.99;76.03
21944;BME280;11136;48.778;9.126;2023-12-14T07:28:40;96800.06;;;6.17;76.11
21944;BME280;11136;48.778;9.126;2023-12-14T07:31:05;96899.94;;;6.80;76.49
21944;BME280;11136;48.778;9.126;2023-12-14T07:33:31;96066.66;;;1.49;75.74
21944;BME280;11136;48.778;9.126;2023-12-14T07:35:56;96368.47;;;2.95;76.02
21944;BME280;11136;48.778;9.126;2023-12-14T07:38:21;96941.44;;;7.11;76.31
21944;BME280;11136;48.778;9.126;2023-12-14T07:40:46;96897.09;;;6.85;76.68
21944;BME280;11136;48.778;9.126;2023-12-14T07:43:12;96867.72;;;6.79;76.72
21944;BME280;11136;48.778;9.126;2023-12-14T07:45:37;97015.56;;;7.64;76.73
21944;BME280;11136;48.778;9.126;2023-12-14T07:48:03;96857.16;;;6.71;76.36
21944;BME280;11136;48.778;9.126;2023-12-14T07:50:29;97102.13;;;8.24;76.30
21944;BME280;11136;48.778;9.126;2023-12-14T07:52:55;97143.00;;;8.24;76.64
21944;BME280;11136;48.778;9.126;2023-12-14T07:55:20;97118.56;;;8.20;76.91
21944;BME280;11136;48.778;9.126;2023-12-14T07:57:46;97102.72;;;8.15;77.31
21944;BME280;11136;48.778;9.126;2023-12-14T08:00:13;96877.16;;;6.63;76.58
21944;BME280;11136;48.778;9.126;2023-12-14T08:02:38;97121.47;;;8.14;77.11
21944;BME280;11136;48.778;9.126;2023-12-14T08:05:04;97088.00;;;7.90;76.64
21944;BME280;11136;48.778;9.126;2023-12-14T08:07:31;97124.41;;;8.22;77.20
21944;BME280;11136;48.778;9.126;2023-12-14T08:09:57;97110.47;;;7.41;76.96
21944;BME280;11136;48.778;9.126;2023-12-14T08:12:23;96995.91;;;7.38;76.60
21944;BME280;11136;48.778;9.126;2023-12-14T08:14:48;96997.06;;;7.04;76.32
21944;BME280;11136;48.778;9.126;2023-12-14T08:17:13;97046.16;;;7.22;76.65
21944;BME280;11136;48.778;9.126;2023-12-14T08:19:39;97159.59;;;8.32;76.93
21944;BME280;11136;48.778;9.126;2023-12-14T08:22:04;96835.97;;;6.12;76.62
21944;BME280;11136;48.778;9.126;2023-12-14T08:24:29;97152.28;;;7.83;76.87
21944;BME280;11136;48.778;9.126;2023-12-14T08:26:54;97214.72;;;8.36;76.94
21944;BME280;11136;48.778;9.126;2023-12-14T08:29:20;96993.91;;;7.29;77.08
21944;BME280;11136;48.778;9.126;2023-12-14T08:31:45;96827.56;;;6.10;76.19
21944;BME280;11136;48.778;9.126;2023-12-14T08:34:10;96795.38;;;5.95;76.18
21944;BME280;11136;48.778;9.126;2023-12-14T08:36:35;97044.00;;;7.44;76.42
21944;BME280;11136;48.778;9.126;2023-12-14T08:39:01;96970.38;;;6.95;76.87
21944;BME280;11136;48.778;9.126;2023-12-14T08:41:26;97203.09;;;8.30;76.69
21944;BME280;11136;48.778;9.126;2023-12-14T08:43:52;97188.59;;;8.30;76.42
21944;BME280;11136;48.778;9.126;2023-12-14T08:46:18;97042.81;;;6.61;76.83
21944;BME280;11136;48.778;9.126;2023-12-14T08:48:43;97030.66;;;7.11;76.54
21944;BME280;11136;48.778;9.126;2023-12-14T08:51:09;97046.34;;;7.33;76.50
21944;BME280;11136;48.778;9.126;2023-12-14T08:53:34;97080.00;;;7.68;76.08
21944;BME280;11136;48.778;9.126;2023-12-14T08:55:59;96961.56;;;5.95;75.60
21944;BME280;11136;48.778;9.126;2023-12-14T08:58:24;97179.56;;;8.25;75.87
21944;BME280;11136;48.778;9.126;2023-12-14T09:00:50;97060.72;;;7.20;75.79
21944;BME280;11136;48.778;9.126;2023-12-14T09:03:19;96965.50;;;6.76;76.41
21944;BME280;11136;48.778;9.126;2023-12-14T09:05:44;97084.59;;;7.33;76.43
21944;BME280;11136;48.778;9.126;2023-12-14T09:08:10;96797.22;;;5.61;76.50
21944;BME280;11136;48.778;9.126;2023-12-14T09:10:35;97171.44;;;7.76;75.96
21944;BME280;11136;48.778;9.126;2023-12-14T09:13:01;97288.44;;;8.56;76.63
21944;BME280;11136;48.778;9.126;2023-12-14T09:15:29;97134.97;;;7.29;76.02
21944;BME280;11136;48.778;9.126;2023-12-14T09:17:54;96901.75;;;6.34;76.07
21944;BME280;11136;48.778;9.126;2023-12-14T09:20:20;96838.63;;;5.95;76.39
21944;BME280;11136;48.778;9.126;2023-12-14T09:22:45;96974.16;;;6.74;75.86
21944;BME280;11136;48.778;9.126;2023-12-14T09:25:10;97052.47;;;7.00;76.45
21944;BME280;11136;48.778;9.126;2023-12-14T09:27:36;97110.25;;;7.00;76.43
21944;BME280;11136;48.778;9.126;2023-12-14T09:30:01;97201.31;;;7.44;76.39
21944;BME280;11136;48.778;9.126;2023-12-14T09:32:27;97136.22;;;7.66;76.23
21944;BME280;11136;48.778;9.126;2023-12-14T09:34:52;97105.38;;;7.41;76.49
21944;BME280;11136;48.778;9.126;2023-12-14T09:37:21;97111.84;;;7.32;76.34
21944;BME280;11136;48.778;9.126;2023-12-14T09:39:46;97172.34;;;7.89;76.52
21944;BME280;11136;48.778;9.126;2023-12-14T09:42:16;96938.94;;;6.66;75.40
21944;BME280;11136;48.778;9.126;2023-12-14T09:44:43;97400.63;;;8.61;76.47
21944;BME280;11136;48.778;9.126;2023-12-14T09:47:08;97330.44;;;8.80;76.14
21944;BME280;11136;48.778;9.126;2023-12-14T09:49:34;97100.69;;;7.63;76.00
21944;BME280;11136;48.778;9.126;2023-12-14T09:52:00;97310.16;;;8.49;76.00
21944;BME280;11136;48.778;9.126;2023-12-14T09:54:26;97015.88;;;6.87;75.99
21944;BME280;11136;48.778;9.126;2023-12-14T09:56:52;97280.59;;;8.73;76.44
21944;BME280;11136;48.778;9.126;2023-12-14T09:59:18;97223.75;;;8.41;76.20
21944;BME280;11136;48.778;9.126;2023-12-14T10:01:44;97017.19;;;7.09;75.88
21944;BME280;11136;48.778;9.126;2023-12-14T10:04:10;97333.91;;;9.08;76.45
21944;BME280;11136;48.778;9.126;2023-12-14T10:06:37;96914.22;;;6.38;76.31
21944;BME280;11136;48.778;9.126;2023-12-14T10:09:02;96910.16;;;6.20;76.55
21944;BME280;11136;48.778;9.126;2023-12-14T10:11:28;96985.78;;;6.64;76.47
21944;BME280;11136;48.778;9.126;2023-12-14T10:13:54;97051.41;;;7.04;76.10
21944;BME280;11136;48.778;9.126;2023-12-14T10:16:29;97337.38;;;9.07;76.70
21944;BME280;11136;48.778;9.126;2023-12-14T10:18:56;96987.16;;;6.69;76.78
21944;BME280;11136;48.778;9.126;2023-12-14T10:21:23;97258.47;;;8.29;76.56
21944;BME280;11136;48.778;9.126;2023-12-14T10:23:48;97243.69;;;8.20;76.59
21944;BME280;11136;48.778;9.126;2023-12-14T10:26:14;97349.06;;;9.11;76.48
21944;BME280;11136;48.778;9.126;2023-12-14T10:28:39;96930.34;;;6.53;76.19
21944;BME280;11136;48.778;9.126;2023-12-14T10:31:05;97217.44;;;8.18;76.28
21944;BME280;11136;48.778;9.126;2023-12-14T10:33:30;97234.91;;;8.40;76.49
21944;BME280;11136;48.778;9.126;2023-12-14T10:35:56;97380.66;;;9.38;76.17
21944;BME280;11136;48.778;9.126;2023-12-14T10:38:24;97117.09;;;7.74;75.74
21944;BME280;11136;48.778;9.126;2023-12-14T10:40:50;97067.69;;;7.02;75.58
21944;BME280;11136;48.778;9.126;2023-12-14T10:43:18;97246.63;;;8.85;75.62
21944;BME280;11136;48.778;9.126;2023-12-14T10:45:46;97396.06;;;9.65;75.27
21944;BME280;11136;48.778;9.126;2023-12-14T10:48:13;96628.41;;;5.05;74.98
21944;BME280;11136;48.778;9.126;2023-12-14T10:50:42;97188.59;;;8.30;75.57
21944;BME280;11136;48.778;9.126;2023-12-14T10:53:07;97134.44;;;7.97;75.22
21944;BME280;11136;48.778;9.126;2023-12-14T10:55:37;97313.06;;;9.14;75.48
21944;BME280;11136;48.778;9.126;2023-12-14T10:58:04;97249.91;;;8.59;75.26
21944;BME280;11136;48.778;9.126;2023-12-14T11:00:30;97321.28;;;9.05;75.47
21944;BME280;11136;48.778;9.126;2023-12-14T11:02:57;97248.13;;;8.47;75.42
21944;BME280;11136;48.778;9.126;2023-12-14T11:05:22;97401.06;;;9.67;75.72
21944;BME280;11136;48.778;9.126;2023-12-14T11:07:56;97044.59;;;7.19;74.92
21944;BME280;11136;48.778;9.126;2023-12-14T11:10:37;97275.94;;;8.94;75.06
21944;BME280;11136;48.778;9.126;2023-12-14T11:13:07;97398.41;;;9.82;75.02
21944;BME280;11136;48.778;9.126;2023-12-14T11:15:36;97318.34;;;9.25;75.03
21944;BME280;11136;48.778;9.126;2023-12-14T11:21:00;97401.28;;;9.91;74.70
21944;BME280;11136;48.778;9.126;2023-12-14T11:23:26;97407.22;;;9.91;75.14
21944;BME280;11136;48.778;9.126;2023-12-14T11:25:54;97050.56;;;7.77;74.58
21944;BME280;11136;48.778;9.126;2023-12-14T11:28:20;97257.88;;;8.83;74.56
21944;BME280;11136;48.778;9.126;2023-12-14T11:30:46;97151.91;;;8.32;74.91
21944;BME280;11136;48.778;9.126;2023-12-14T11:33:12;97039.81;;;7.57;74.58
21944;BME280;11136;48.778;9.126;2023-12-14T11:35:37;97461.28;;;10.01;75.28
21944;BME280;11136;48.778;9.126;2023-12-14T11:38:03;96713.59;;;5.57;74.72
21944;BME280;11136;48.778;9.126;2023-12-14T11:40:35;97204.31;;;8.53;74.48
21944;BME280;11136;48.778;9.126;2023-12-14T11:43:02;97175.03;;;8.16;74.28
21944;BME280;11136;48.778;9.126;2023-12-14T11:45:31;97434.13;;;9.98;75.04
21944;BME280;11136;48.778;9.126;2023-12-14T11:47:57;97311.06;;;9.05;74.17
21944;BME280;11136;48.778;9.126;2023-12-14T11:50:22;97316.75;;;8.96;74.09
21944;BME280;11136;48.778;9.126;2023-12-14T11:52:49;97111.25;;;7.86;73.98
21944;BME280;11136;48.778;9.126;2023-12-14T11:55:14;97085.56;;;7.60;74.21
21944;BME280;11136;48.778;9.126;2023-12-14T11:57:46;97391.09;;;9.35;73.95
21944;BME280;11136;48.778;9.126;2023-12-14T12:00:12;97448.59;;;9.85;74.02
21944;BME280;11136;48.778;9.126;2023-12-14T12:02:37;97315.28;;;8.77;73.54
21944;BME280;11136;48.778;9.126;2023-12-14T12:05:03;97304.16;;;8.64;73.44
21944;BME280;11136;48.778;9.126;2023-12-14T12:07:28;97456.63;;;9.93;73.35
21944;BME280;11136;48.778;9.126;2023-12-14T12:09:55;97136.06;;;7.84;72.63
21944;BME280;11136;48.778;9.126;2023-12-14T12:12:20;97353.19;;;8.85;72.54
21944;BME280;11136;48.778;9.126;2023-12-14T12:14:46;97305.06;;;8.92;72.33
21944;BME280;11136;48.778;9.126;2023-12-14T12:17:13;97206.69;;;8.42;72.15
21944;BME280;11136;48.778;9.126;2023-12-14T12:19:40;97128.78;;;7.78;72.15
21944;BME280;11136;48.778;9.126;2023-12-14T12:22:07;97419.94;;;9.37;72.00
21944;BME280;11136;48.778;9.126;2023-12-14T12:24:33;97210.38;;;8.08;72.18
21944;BME280;11136;48.778;9.126;2023-12-14T12:26:59;97482.25;;;9.79;71.52
21944;BME280;11136;48.778;9.126;2023-12-14T12:29:25;97394.28;;;9.10;71.89
21944;BME280;11136;48.778;9.126;2023-12-14T12:31:50;97443.16;;;9.34;71.82
21944;BME280;11136;48.778;9.126;2023-12-14T12:34:17;97311.69;;;8.37;72.01
21944;BME280;11136;48.778;9.126;2023-12-14T12:36:42;96878.75;;;5.58;71.94
21944;BME280;11136;48.778;9.126;2023-12-14T12:39:07;96351.31;;;1.99;71.13
21944;BME280;11136;48.778;9.126;2023-12-14T12:41:34;97151.38;;;6.31;71.92
21944;BME280;11136;48.778;9.126;2023-12-14T12:43:59;97405.38;;;8.37;71.99
21944;BME280;11136;48.778;9.126;2023-12-14T12:46:37;97444.81;;;8.77;72.77
21944;BME280;11136;48.778;9.126;2023-12-14T12:49:03;97280.44;;;7.58;72.77
21944;BME280;11136;48.778;9.126;2023-12-14T12:51:29;97013.88;;;5.83;72.21
21944;BME280;11136;48.778;9.126;2023-12-14T12:53:56;96798.00;;;4.18;72.75
21944;BME280;11136;48.778;9.126;2023-12-14T12:56:26;97426.59;;;8.07;72.76
21944;BME280;11136;48.778;9.126;2023-12-14T12:58:52;97252.78;;;7.04;72.85
21944;BME280;11136;48.778;9.126;2023-12-14T13:01:20;97499.91;;;8.37;72.80
21944;BME280;11136;48.778;9.126;2023-12-14T13:03:46;97352.69;;;7.58;72.98
21944;BME280;11136;48.778;9.126;2023-12-14T13:06:11;97423.00;;;7.95;72.95